Time;durP1;ratioP1;P1;durP2;ratioP2;P2;SDS_P1;SDS_P2;PMS_P1;PMS_P2;Temp;Humidity;BMP_temperature;BMP_pressure;BME280_temperature;BME280_humidity;BME280_pressure;Samples;Min_cycle;Max_cycle;Signal;HPM_P1;HPM_P2
2022/12/24 00:01:04;;;;;;;6.70;4.35;;;3.70;99.90;;;;;;5001562;28;20054;-80
2022/12/24 00:03:32;;;;;;;4.78;4.28;;;3.70;99.90;;;;;;5004342;28;20140;-80
2022/12/24 00:05:59;;;;;;;4.47;4.03;;;3.80;99.90;;;;;;4998381;28;20413;-81
2022/12/24 00:08:27;;;;;;;5.28;4.13;;;3.80;99.90;;;;;;5003113;28;20073;-80
2022/12/24 00:10:55;;;;;;;5.50;3.90;;;3.80;99.90;;;;;;4981562;28;20066;-78
2022/12/24 00:13:23;;;;;;;6.55;4.65;;;3.80;99.90;;;;;;4988737;28;20058;-79
2022/12/24 00:15:51;;;;;;;5.63;4.78;;;3.80;99.90;;;;;;4991544;28;20054;-80
2022/12/24 00:18:19;;;;;;;8.45;5.35;;;3.90;99.90;;;;;;4989102;28;20086;-81
2022/12/24 00:20:47;;;;;;;5.22;3.97;;;3.90;99.90;;;;;;4985938;28;20050;-80
2022/12/24 00:23:16;;;;;;;9.85;5.82;;;3.90;99.90;;;;;;5006419;28;20053;-80
2022/12/24 00:25:44;;;;;;;8.02;6.20;;;3.90;99.90;;;;;;4991992;28;20074;-80
2022/12/24 00:28:12;;;;;;;7.00;6.30;;;3.80;99.90;;;;;;4969919;28;20508;-79
2022/12/24 00:30:41;;;;;;;8.52;6.05;;;3.90;99.90;;;;;;4987252;28;20046;-79
2022/12/24 00:33:09;;;;;;;5.05;4.55;;;3.80;99.90;;;;;;4990285;28;20050;-79
2022/12/24 00:35:36;;;;;;;5.60;4.55;;;3.80;99.90;;;;;;4991158;28;20422;-80
2022/12/24 00:38:04;;;;;;;3.40;3.10;;;3.80;99.90;;;;;;4991565;28;20050;-79
2022/12/24 00:40:33;;;;;;;3.08;2.78;;;3.80;99.90;;;;;;5004119;28;20050;-79
2022/12/24 00:43:01;;;;;;;3.20;2.88;;;3.70;99.90;;;;;;4989310;28;20525;-78
2022/12/24 00:45:29;;;;;;;2.72;2.53;;;3.70;99.90;;;;;;4989851;28;20046;-80
2022/12/24 00:47:58;;;;;;;2.90;2.60;;;3.70;99.90;;;;;;5001763;28;20529;-80
2022/12/24 00:50:25;;;;;;;4.88;2.28;;;3.60;99.90;;;;;;4990371;28;20503;-79
2022/12/24 00:52:53;;;;;;;3.55;2.53;;;3.60;99.90;;;;;;5005911;28;20423;-80
2022/12/24 00:55:20;;;;;;;3.75;2.42;;;3.50;99.90;;;;;;4985769;28;20125;-81
2022/12/24 00:57:48;;;;;;;3.25;2.95;;;3.50;99.90;;;;;;4997789;28;20136;-78
2022/12/24 01:00:16;;;;;;;4.32;3.45;;;3.50;99.90;;;;;;4989627;28;20426;-79
2022/12/24 01:02:44;;;;;;;2.58;2.38;;;3.50;99.90;;;;;;4989761;28;20430;-80
2022/12/24 01:05:12;;;;;;;3.55;2.67;;;3.50;99.90;;;;;;4987374;28;20057;-79
2022/12/24 01:07:43;;;;;;;4.85;2.85;;;3.50;99.90;;;;;;4984360;28;20530;-79
2022/12/24 01:10:12;;;;;;;3.00;2.78;;;3.50;99.90;;;;;;4988731;28;20046;-79
2022/12/24 01:12:40;;;;;;;3.38;3.00;;;3.50;99.90;;;;;;4989650;28;20092;-79
2022/12/24 01:15:09;;;;;;;3.17;2.83;;;3.50;99.90;;;;;;4988635;28;20050;-79
2022/12/24 01:17:37;;;;;;;5.20;2.92;;;3.50;99.90;;;;;;4988028;28;20137;-78
2022/12/24 01:20:11;;;;;;;4.45;3.90;;;3.50;99.90;;;;;;5008269;28;20078;-80
2022/12/24 01:22:40;;;;;;;5.55;3.50;;;3.40;99.90;;;;;;4993827;28;20050;-81
2022/12/24 01:25:08;;;;;;;12.40;3.45;;;3.40;99.90;;;;;;4992235;28;20503;-79
2022/12/24 01:27:36;;;;;;;9.05;3.55;;;3.30;99.90;;;;;;5007267;28;20141;-79
2022/12/24 01:30:04;;;;;;;15.20;3.72;;;3.30;99.90;;;;;;4991831;28;20593;-80
2022/12/24 01:32:32;;;;;;;8.82;3.20;;;3.30;99.90;;;;;;5008878;28;20145;-79
2022/12/24 01:35:00;;;;;;;8.38;3.25;;;3.30;99.90;;;;;;4980467;28;20507;-79
2022/12/24 01:37:27;;;;;;;7.70;3.22;;;3.30;99.90;;;;;;4982693;28;20114;-79
2022/12/24 01:43:22;;;;;;;10.82;3.47;;;3.20;99.90;;;;;;4993952;28;20499;-80
2022/12/24 01:45:46;;;;;;;10.23;3.33;;;3.20;99.90;;;;;;4992693;28;20046;-79
2022/12/24 01:48:21;;;;;;;7.97;3.13;;;3.20;99.90;;;;;;4991375;28;20054;-81
2022/12/24 01:50:54;;;;;;;7.05;2.42;;;3.20;99.90;;;;;;4994391;28;20527;-79
2022/12/24 01:53:22;;;;;;;7.85;2.50;;;3.30;99.90;;;;;;5001138;28;20061;-79
2022/12/24 01:55:52;;;;;;;10.00;2.30;;;3.20;99.90;;;;;;4991959;28;20052;-79
2022/12/24 01:58:23;;;;;;;4.78;2.75;;;3.30;99.90;;;;;;4993405;28;20042;-80
2022/12/24 02:00:50;;;;;;;4.45;2.90;;;3.30;99.90;;;;;;4991718;28;20066;-79
2022/12/24 02:03:18;;;;;;;3.67;2.83;;;3.30;99.90;;;;;;4987301;28;20524;-79
2022/12/24 02:05:49;;;;;;;3.10;2.13;;;3.30;99.90;;;;;;5005906;28;20054;-77
2022/12/24 02:08:18;;;;;;;3.75;2.40;;;3.30;99.90;;;;;;4993271;28;20058;-79
2022/12/24 02:10:47;;;;;;;9.57;5.45;;;3.20;99.90;;;;;;4992498;28;20570;-79
2022/12/24 02:13:20;;;;;;;2.63;1.30;;;3.20;99.90;;;;;;4975247;28;20508;-79
2022/12/24 02:16:21;;;;;;;1.50;1.20;;;3.20;99.90;;;;;;5005845;28;20262;-79
2022/12/24 02:18:59;;;;;;;1.63;1.52;;;3.20;99.90;;;;;;5009077;28;20156;-80
2022/12/24 02:21:48;;;;;;;1.20;0.98;;;3.10;99.90;;;;;;5002420;28;20077;-80
2022/12/24 02:25:00;;;;;;;1.45;1.10;;;3.10;99.90;;;;;;5006471;28;20486;-80
2022/12/24 02:27:48;;;;;;;1.40;1.30;;;3.10;99.90;;;;;;5008803;28;20091;-80
2022/12/24 02:30:20;;;;;;;0.82;0.82;;;3.10;99.90;;;;;;4984999;28;20137;-79
2022/12/24 02:33:03;;;;;;;2.53;1.00;;;3.10;99.90;;;;;;4992628;28;20320;-80
2022/12/24 02:35:40;;;;;;;1.30;1.20;;;3.10;99.90;;;;;;4991123;28;20152;-78
2022/12/24 02:38:16;;;;;;;1.35;1.25;;;3.10;99.90;;;;;;5005981;28;20546;-77
2022/12/24 02:40:50;;;;;;;1.40;1.30;;;3.10;99.90;;;;;;4989335;28;20054;-78
2022/12/24 02:43:24;;;;;;;1.20;1.10;;;3.10;99.90;;;;;;4989930;28;20121;-77
2022/12/24 02:46:02;;;;;;;1.00;1.00;;;3.00;99.90;;;;;;4993183;28;20057;-78
2022/12/24 02:48:32;;;;;;;1.30;1.20;;;3.10;99.90;;;;;;4991595;28;20439;-78
2022/12/24 02:51:05;;;;;;;0.95;0.85;;;3.10;99.90;;;;;;4992712;28;20505;-78
2022/12/24 02:53:33;;;;;;;;;;;3.10;99.90;;;;;;4993789;28;20055;-78
2022/12/24 02:56:26;;;;;;;1.77;0.90;;;3.00;99.90;;;;;;4991011;28;19975;-78
2022/12/24 02:59:03;;;;;;;;;;;3.00;99.90;;;;;;4992716;28;20088;-79
2022/12/24 03:01:45;;;;;;;1.60;0.90;;;3.00;99.90;;;;;;4991870;28;19936;-79
2022/12/24 03:04:38;;;;;;;0.68;0.68;;;2.90;99.90;;;;;;4992138;28;20124;-77
2022/12/24 03:07:15;;;;;;;1.13;0.50;;;2.90;99.90;;;;;;4985482;28;20078;-77
2022/12/24 03:09:56;;;;;;;0.45;0.45;;;2.90;99.90;;;;;;4986674;28;20066;-77
2022/12/24 03:12:32;;;;;;;2.78;0.50;;;2.80;99.90;;;;;;4984043;28;20077;-77
2022/12/24 03:15:00;;;;;;;0.40;0.40;;;2.80;99.90;;;;;;4991315;28;20046;-77
2022/12/24 03:17:30;;;;;;;0.15;0.10;;;2.80;99.90;;;;;;4987094;28;20377;-77
2022/12/24 03:19:58;;;;;;;0.70;0.38;;;2.70;99.90;;;;;;4990350;28;20046;-77
2022/12/24 03:22:26;;;;;;;0.45;0.43;;;2.70;99.90;;;;;;4992246;28;20558;-77
2022/12/24 03:24:54;;;;;;;0.38;0.30;;;2.60;99.90;;;;;;4989979;28;20085;-77
2022/12/24 03:27:22;;;;;;;0.50;0.20;;;2.60;99.90;;;;;;4980841;28;20450;-78
2022/12/24 03:29:49;;;;;;;0.63;0.20;;;2.50;99.90;;;;;;4991221;28;20430;-79
2022/12/24 03:32:24;;;;;;;0.38;0.20;;;2.40;99.90;;;;;;4992614;28;20125;-78
2022/12/24 03:34:53;;;;;;;1.95;0.17;;;2.40;99.90;;;;;;4987771;28;20093;-79
2022/12/24 03:37:21;;;;;;;0.10;0.10;;;2.40;99.90;;;;;;4990692;28;20054;-79
2022/12/24 03:39:48;;;;;;;0.17;0.17;;;2.30;99.90;;;;;;4992030;28;20557;-79
2022/12/24 03:42:16;;;;;;;0.38;0.30;;;2.30;99.90;;;;;;4991160;28;20140;-79
2022/12/24 03:44:44;;;;;;;0.30;0.30;;;2.30;99.90;;;;;;4994427;28;20060;-79
2022/12/24 03:47:11;;;;;;;0.20;0.20;;;2.40;99.90;;;;;;4986178;28;20541;-78
2022/12/24 03:49:39;;;;;;;0.20;0.10;;;2.30;99.90;;;;;;4972813;28;20144;-77
2022/12/24 03:52:08;;;;;;;0.28;0.20;;;2.40;99.90;;;;;;4995600;28;20060;-77
2022/12/24 03:54:35;;;;;;;0.20;0.10;;;2.40;99.90;;;;;;4975660;28;20063;-77
2022/12/24 03:57:03;;;;;;;0.35;0.32;;;2.40;99.90;;;;;;4988941;28;20042;-76
2022/12/24 03:59:31;;;;;;;0.20;0.20;;;2.40;99.90;;;;;;4991257;28;20117;-77
2022/12/24 04:01:58;;;;;;;0.20;0.20;;;2.40;99.90;;;;;;4989182;28;20136;-78
2022/12/24 04:04:26;;;;;;;0.40;0.32;;;2.40;99.90;;;;;;5001198;28;20046;-80
2022/12/24 04:06:53;;;;;;;0.10;0.10;;;2.40;99.90;;;;;;4990735;28;20074;-80
2022/12/24 04:09:22;;;;;;;0.40;0.22;;;2.30;99.90;;;;;;4990980;28;20062;-80
2022/12/24 04:11:50;;;;;;;0.20;0.20;;;2.20;99.90;;;;;;4983209;28;20137;-80
2022/12/24 04:14:17;;;;;;;0.20;0.20;;;2.10;99.90;;;;;;4983673;28;20050;-81
2022/12/24 04:16:45;;;;;;;0.32;0.22;;;2.00;99.90;;;;;;4991347;28;20049;-80
2022/12/24 04:19:12;;;;;;;1.15;0.32;;;2.00;99.90;;;;;;4989861;28;20627;-79
2022/12/24 04:21:40;;;;;;;2.55;1.63;;;1.80;99.90;;;;;;4968444;28;20050;-80
2022/12/24 04:24:10;;;;;;;0.57;0.45;;;1.70;99.90;;;;;;4973127;28;20051;-80
2022/12/24 04:26:39;;;;;;;1.30;0.50;;;1.60;99.90;;;;;;4993082;28;20474;-78
2022/12/24 04:29:07;;;;;;;0.88;0.80;;;1.60;99.90;;;;;;5003047;28;20056;-79
2022/12/24 04:31:34;;;;;;;0.63;0.40;;;1.60;99.90;;;;;;4990399;28;20579;-78
2022/12/24 04:34:02;;;;;;;0.50;0.40;;;1.60;99.90;;;;;;5008258;28;20104;-77
2022/12/24 04:36:30;;;;;;;0.77;0.40;;;1.50;99.90;;;;;;5006359;28;20049;-73
2022/12/24 04:38:57;;;;;;;0.73;0.60;;;1.50;99.90;;;;;;4989355;28;20041;-72
2022/12/24 04:41:25;;;;;;;0.70;0.70;;;1.50;99.90;;;;;;4991218;28;20056;-78
2022/12/24 04:43:55;;;;;;;0.55;0.55;;;1.60;99.90;;;;;;4988952;28;20065;-78
2022/12/24 04:46:25;;;;;;;1.73;0.70;;;1.60;99.90;;;;;;4990312;28;20042;-77
2022/12/24 04:48:54;;;;;;;0.50;0.50;;;1.50;99.90;;;;;;4989187;28;20054;-78
2022/12/24 04:51:23;;;;;;;0.82;0.82;;;1.40;99.90;;;;;;5006387;28;20057;-78
2022/12/24 04:53:51;;;;;;;0.95;0.55;;;1.30;99.90;;;;;;4990176;28;20116;-78
2022/12/24 04:56:21;;;;;;;1.35;0.70;;;1.20;99.90;;;;;;4986523;28;20172;-78
2022/12/24 04:58:52;;;;;;;1.25;0.60;;;1.10;99.90;;;;;;4983305;28;20383;-78
2022/12/24 05:01:24;;;;;;;1.42;0.68;;;1.00;99.90;;;;;;4991570;28;20058;-83
2022/12/24 05:03:52;;;;;;;2.15;0.90;;;0.90;99.90;;;;;;4988718;28;20082;-82
2022/12/24 05:06:23;;;;;;;1.15;0.70;;;0.90;99.90;;;;;;4988922;28;20124;-78
2022/12/24 05:08:50;;;;;;;0.95;0.80;;;0.80;99.90;;;;;;4989410;28;20383;-78
2022/12/24 05:11:18;;;;;;;0.70;0.70;;;0.70;99.90;;;;;;4989983;28;20129;-85
2022/12/24 05:13:48;;;;;;;1.90;1.00;;;0.70;99.90;;;;;;4989213;28;20047;-79
2022/12/24 05:16:21;;;;;;;;;;;0.60;99.90;;;;;;4969451;28;20097;-80
2022/12/24 05:18:49;;;;;;;0.90;0.90;;;0.50;99.90;;;;;;4979752;28;20319;-81
2022/12/24 05:21:20;;;;;;;1.17;0.90;;;0.50;99.90;;;;;;4989428;28;20165;-80
2022/12/24 05:26:37;;;;;;;0.80;0.80;;;0.40;99.90;;;;;;4959157;28;20050;-81
2022/12/24 05:29:08;;;;;;;2.15;0.75;;;0.40;99.90;;;;;;4981938;28;20418;-80
2022/12/24 05:31:38;;;;;;;2.35;0.90;;;0.30;99.90;;;;;;4986512;28;20050;-80
2022/12/24 05:34:06;;;;;;;3.15;0.75;;;0.30;99.90;;;;;;4986511;28;20534;-79
2022/12/24 05:36:34;;;;;;;2.65;0.68;;;0.20;99.90;;;;;;4989774;28;20105;-79
2022/12/24 05:39:02;;;;;;;1.23;0.55;;;0.20;99.90;;;;;;4970871;28;20054;-83
2022/12/24 05:41:30;;;;;;;1.95;1.00;;;0.20;99.90;;;;;;4992466;28;20058;-79
2022/12/24 05:43:58;;;;;;;0.98;0.60;;;0.10;99.90;;;;;;4986906;28;20050;-80
2022/12/24 05:46:26;;;;;;;1.75;0.90;;;0.10;99.90;;;;;;4983357;28;20081;-79
2022/12/24 05:48:55;;;;;;;1.50;0.88;;;0.00;99.90;;;;;;4988988;28;20081;-75
2022/12/24 05:51:23;;;;;;;3.17;0.90;;;0.10;99.90;;;;;;4989888;28;20538;-80
2022/12/24 05:53:52;;;;;;;4.40;0.70;;;0.00;99.90;;;;;;4989586;28;20066;-80
2022/12/24 05:56:22;;;;;;;2.67;0.98;;;0.00;99.90;;;;;;4989951;28;20426;-80
2022/12/24 05:58:52;;;;;;;1.50;0.75;;;0.00;99.90;;;;;;5003782;28;20094;-81
2022/12/24 06:01:20;;;;;;;2.00;0.90;;;0.00;99.90;;;;;;4988902;28;20092;-79
2022/12/24 06:03:49;;;;;;;3.33;1.00;;;0.00;99.90;;;;;;4986185;28;20133;-79
2022/12/24 06:06:20;;;;;;;4.82;1.85;;;-0.10;99.90;;;;;;4992777;28;20133;-81
2022/12/24 06:08:49;;;;;;;3.92;0.88;;;-0.10;99.90;;;;;;4994189;28;20058;-79
2022/12/24 06:11:21;;;;;;;0.90;0.80;;;-0.10;99.90;;;;;;4993520;28;20055;-81
2022/12/24 06:13:49;;;;;;;2.83;0.75;;;-0.10;99.90;;;;;;4991589;28;20054;-80
2022/12/24 06:16:18;;;;;;;2.33;0.77;;;-0.20;99.90;;;;;;4993173;28;20126;-81
2022/12/24 06:18:47;;;;;;;4.65;0.80;;;-0.20;99.90;;;;;;4994129;28;20069;-80
2022/12/24 06:21:17;;;;;;;3.42;0.73;;;-0.20;99.90;;;;;;4998948;28;20046;-81
2022/12/24 06:23:46;;;;;;;4.93;1.35;;;-0.30;99.90;;;;;;4990067;28;20557;-79
2022/12/24 06:26:16;;;;;;;2.30;0.95;;;-0.30;99.90;;;;;;4991523;28;20054;-79
2022/12/24 06:28:44;;;;;;;6.47;1.58;;;-0.30;99.90;;;;;;4989814;28;20578;-79
2022/12/24 06:31:14;;;;;;;2.83;0.90;;;-0.20;99.90;;;;;;4991446;28;20073;-80
2022/12/24 06:33:42;;;;;;;5.50;0.90;;;-0.20;99.90;;;;;;4993173;28;20137;-79
2022/12/24 06:36:15;;;;;;;3.53;1.15;;;-0.20;99.90;;;;;;4993435;28;20056;-79
2022/12/24 06:38:44;;;;;;;6.03;0.57;;;-0.10;99.90;;;;;;4992557;28;20058;-78
2022/12/24 06:41:11;;;;;;;4.38;0.90;;;-0.10;99.90;;;;;;4992146;28;20448;-81
2022/12/24 06:43:45;;;;;;;6.68;1.38;;;0.00;99.90;;;;;;4995137;28;20507;-79
2022/12/24 06:46:14;;;;;;;1.95;0.98;;;0.10;99.90;;;;;;5006784;28;20054;-80
2022/12/24 06:48:42;;;;;;;2.50;0.73;;;0.20;99.90;;;;;;4992375;28;20129;-80
2022/12/24 06:51:10;;;;;;;4.05;0.80;;;0.20;99.90;;;;;;4992869;28;20054;-80
2022/12/24 06:53:38;;;;;;;4.82;1.40;;;0.20;99.90;;;;;;4994008;28;20042;-80
2022/12/24 06:56:09;;;;;;;4.25;0.80;;;0.20;99.90;;;;;;4993730;28;20165;-80
2022/12/24 06:58:38;;;;;;;3.33;0.95;;;0.30;99.90;;;;;;4993346;28;20076;-81
2022/12/24 07:01:08;;;;;;;1.83;1.00;;;0.20;99.90;;;;;;5000433;28;20181;-81
2022/12/24 07:03:36;;;;;;;5.75;1.00;;;0.20;99.90;;;;;;4993695;28;20628;-82
2022/12/24 07:06:05;;;;;;;7.20;1.63;;;0.10;99.90;;;;;;4993984;28;20105;-82
2022/12/24 07:08:35;;;;;;;3.58;1.30;;;0.10;99.90;;;;;;4995484;28;20058;-82
2022/12/24 07:11:03;;;;;;;2.08;1.05;;;0.10;99.90;;;;;;4997615;28;20162;-80
2022/12/24 07:13:33;;;;;;;3.25;1.25;;;0.10;99.90;;;;;;4994089;28;20591;-77
2022/12/24 07:16:02;;;;;;;3.15;1.33;;;0.20;99.90;;;;;;4995681;28;20050;-76
2022/12/24 07:18:30;;;;;;;4.60;2.30;;;0.10;99.90;;;;;;4992253;28;20050;-77
2022/12/24 07:20:58;;;;;;;5.65;1.55;;;0.10;99.90;;;;;;4992515;28;20109;-75
2022/12/24 07:23:26;;;;;;;6.03;1.60;;;0.00;99.90;;;;;;4996608;28;20146;-78
2022/12/24 07:25:54;;;;;;;9.10;2.30;;;0.00;99.90;;;;;;4985497;28;20101;-77
2022/12/24 07:28:22;;;;;;;12.65;3.35;;;0.00;99.90;;;;;;5002462;28;20049;-76
2022/12/24 07:30:51;;;;;;;8.77;3.00;;;0.00;99.90;;;;;;4992127;28;20042;-77
2022/12/24 07:33:19;;;;;;;8.43;2.75;;;0.00;99.90;;;;;;4992917;28;20058;-77
2022/12/24 07:35:46;;;;;;;12.40;2.13;;;0.00;99.90;;;;;;4985086;28;20149;-79
2022/12/24 07:38:14;;;;;;;5.97;2.00;;;0.00;99.90;;;;;;4991035;28;20426;-75
2022/12/24 07:40:42;;;;;;;4.22;1.55;;;0.10;99.90;;;;;;4996569;28;20045;-77
2022/12/24 07:43:09;;;;;;;3.85;1.75;;;0.20;99.90;;;;;;4997682;28;20049;-76
2022/12/24 07:45:50;;;;;;;9.70;1.55;;;0.30;99.90;;;;;;4990019;28;20061;-76
2022/12/24 07:48:19;;;;;;;5.30;1.45;;;0.40;99.90;;;;;;5000535;28;20142;-76
2022/12/24 07:50:49;;;;;;;3.08;1.20;;;0.40;99.90;;;;;;4991512;28;20051;-76
2022/12/24 07:53:17;;;;;;;5.53;1.52;;;0.40;99.90;;;;;;4987062;28;20062;-78
2022/12/24 07:55:45;;;;;;;4.93;1.13;;;0.40;99.90;;;;;;5005462;28;20042;-79
2022/12/24 07:58:13;;;;;;;4.07;1.10;;;0.40;99.90;;;;;;5007218;28;20161;-77
2022/12/24 08:00:41;;;;;;;2.58;0.65;;;0.50;99.90;;;;;;4990985;28;20080;-80
2022/12/24 08:03:11;;;;;;;2.83;0.70;;;0.50;99.90;;;;;;4986144;28;20090;-80
2022/12/24 08:05:43;;;;;;;1.50;0.90;;;0.50;99.90;;;;;;4971773;28;20047;-78
2022/12/24 08:08:12;;;;;;;10.07;0.95;;;0.50;99.90;;;;;;4990332;28;20097;-76
2022/12/24 08:10:39;;;;;;;6.38;0.95;;;0.60;99.90;;;;;;4993520;28;20622;-77
2022/12/24 08:13:07;;;;;;;1.05;0.70;;;0.50;99.90;;;;;;4987686;28;20078;-76
2022/12/24 08:15:35;;;;;;;2.15;0.65;;;0.40;99.90;;;;;;4990200;28;20046;-77
2022/12/24 08:18:03;;;;;;;2.80;0.90;;;0.40;99.90;;;;;;4992313;28;20050;-76
2022/12/24 08:20:30;;;;;;;2.63;1.00;;;0.30;99.90;;;;;;5004492;28;20549;-78
2022/12/24 08:23:06;;;;;;;3.15;1.05;;;0.30;99.90;;;;;;4985920;28;20054;-78
2022/12/24 08:25:34;;;;;;;4.18;0.90;;;0.30;99.90;;;;;;4998286;28;20050;-77
2022/12/24 08:28:01;;;;;;;7.45;1.20;;;0.30;99.90;;;;;;4991884;28;20482;-76
2022/12/24 08:30:29;;;;;;;2.08;0.90;;;0.30;99.90;;;;;;4980068;28;20140;-77
2022/12/24 08:32:56;;;;;;;4.05;0.88;;;0.30;99.90;;;;;;4990864;28;20151;-76
2022/12/24 08:35:24;;;;;;;8.40;1.20;;;0.30;99.90;;;;;;4990391;28;20459;-76
2022/12/24 08:37:52;;;;;;;11.75;2.35;;;0.30;99.90;;;;;;5005020;28;20046;-75
2022/12/24 08:40:21;;;;;;;3.45;1.33;;;0.30;99.90;;;;;;4990014;28;20142;-75
2022/12/24 08:42:49;;;;;;;6.22;1.65;;;0.40;99.90;;;;;;4990029;28;20054;-75
2022/12/24 08:45:17;;;;;;;2.35;1.30;;;0.40;99.90;;;;;;4989824;28;20145;-75
2022/12/24 08:47:44;;;;;;;3.72;0.90;;;0.50;99.90;;;;;;4991212;28;20573;-74
2022/12/24 08:50:12;;;;;;;5.07;1.25;;;0.50;99.90;;;;;;4994945;28;20145;-74
2022/12/24 08:52:40;;;;;;;4.72;1.25;;;0.50;99.90;;;;;;4991292;28;20065;-75
2022/12/24 08:55:09;;;;;;;5.25;1.02;;;0.60;99.90;;;;;;4991763;28;20050;-75
2022/12/24 08:57:38;;;;;;;4.28;1.70;;;0.70;99.90;;;;;;4990167;28;20510;-74
2022/12/24 09:00:08;;;;;;;3.13;1.15;;;0.70;99.90;;;;;;4983920;28;20054;-75
2022/12/24 09:02:36;;;;;;;4.22;0.95;;;0.70;99.90;;;;;;4990336;28;20174;-75
2022/12/24 09:05:04;;;;;;;4.15;1.33;;;0.60;99.90;;;;;;5006955;28;20153;-73
2022/12/24 09:07:32;;;;;;;5.30;1.30;;;0.70;99.90;;;;;;4987201;28;20047;-74
2022/12/24 09:09:59;;;;;;;6.22;1.67;;;0.70;99.90;;;;;;4988266;28;20442;-74
2022/12/24 09:12:27;;;;;;;7.57;1.23;;;0.80;99.90;;;;;;4988737;28;20054;-73
2022/12/24 09:14:55;;;;;;;2.55;1.00;;;0.80;99.90;;;;;;4991180;28;20058;-75
2022/12/24 09:17:23;;;;;;;4.88;1.40;;;0.80;99.90;;;;;;4983202;28;20058;-74
2022/12/24 09:19:51;;;;;;;4.60;0.95;;;0.90;99.90;;;;;;4990041;28;20133;-75
2022/12/24 09:22:18;;;;;;;2.20;0.90;;;0.90;99.90;;;;;;4990187;28;20057;-75
2022/12/24 09:24:46;;;;;;;6.70;1.45;;;0.90;99.90;;;;;;4989351;28;20068;-75
2022/12/24 09:27:14;;;;;;;5.70;1.20;;;1.00;99.90;;;;;;4983393;28;20058;-76
2022/12/24 09:29:41;;;;;;;3.40;1.38;;;1.00;99.90;;;;;;4990097;28;20050;-75
2022/12/24 09:32:10;;;;;;;6.85;1.35;;;1.00;99.90;;;;;;4990011;28;20054;-76
2022/12/24 09:34:39;;;;;;;4.53;1.20;;;0.90;99.90;;;;;;4989387;28;20042;-75
2022/12/24 09:37:07;;;;;;;6.40;1.27;;;0.90;99.90;;;;;;4986833;28;20561;-75
2022/12/24 09:39:34;;;;;;;4.13;1.60;;;0.90;99.90;;;;;;4990754;28;20101;-74
2022/12/24 09:42:17;;;;;;;4.32;1.40;;;0.90;99.90;;;;;;4992627;28;20049;-76
2022/12/24 09:44:49;;;;;;;5.70;1.65;;;1.00;99.90;;;;;;4985981;28;20043;-76
2022/12/24 09:47:27;;;;;;;5.75;2.50;;;1.00;99.90;;;;;;4973184;28;20047;-75
2022/12/24 09:49:57;;;;;;;6.32;1.98;;;1.00;99.90;;;;;;4985736;28;20065;-75
2022/12/24 09:52:33;;;;;;;4.18;1.90;;;1.10;99.90;;;;;;4987659;28;20426;-76
2022/12/24 09:55:13;;;;;;;2.72;1.50;;;1.10;99.90;;;;;;4989237;28;20050;-74
2022/12/24 09:57:42;;;;;;;3.95;1.27;;;1.20;99.90;;;;;;4991411;28;20105;-75
2022/12/24 10:00:21;;;;;;;3.88;1.13;;;1.20;99.90;;;;;;4988785;28;20055;-75
2022/12/24 10:02:50;;;;;;;4.68;1.48;;;1.20;99.90;;;;;;4987312;28;20060;-74
2022/12/24 10:05:27;;;;;;;6.90;1.67;;;1.20;99.90;;;;;;4988004;28;20046;-75
2022/12/24 10:08:05;;;;;;;8.95;1.45;;;1.30;99.90;;;;;;4988862;28;20141;-75
2022/12/24 10:10:43;;;;;;;2.53;1.05;;;1.40;99.90;;;;;;4990172;28;20560;-76
2022/12/24 10:13:21;;;;;;;3.78;1.67;;;1.40;99.90;;;;;;4988138;28;20050;-77
2022/12/24 10:15:56;;;;;;;5.65;1.77;;;1.40;99.90;;;;;;4993253;28;20333;-78
2022/12/24 10:18:35;;;;;;;3.03;1.42;;;1.40;99.90;;;;;;4992251;28;20188;-81
2022/12/24 10:21:13;;;;;;;5.43;1.35;;;1.50;99.90;;;;;;4993865;28;20056;-80
2022/12/24 10:23:49;;;;;;;5.00;1.17;;;1.60;99.90;;;;;;4988853;28;20065;-78
2022/12/24 10:26:24;;;;;;;3.38;1.20;;;1.60;99.90;;;;;;4988805;28;20045;-79
2022/12/24 10:29:02;;;;;;;2.63;0.98;;;1.70;99.90;;;;;;4990844;28;20116;-79
2022/12/24 10:31:35;;;;;;;3.55;1.35;;;1.60;99.90;;;;;;4988352;28;20054;-79
2022/12/24 10:34:14;;;;;;;4.22;0.88;;;1.50;99.90;;;;;;4988077;28;20060;-79
2022/12/24 10:36:42;;;;;;;7.88;0.88;;;1.50;99.90;;;;;;4987523;28;20053;-78
2022/12/24 10:39:17;;;;;;;5.68;1.15;;;1.40;99.90;;;;;;4987534;28;20047;-77
2022/12/24 10:41:46;;;;;;;2.05;0.60;;;1.40;99.90;;;;;;4988477;28;20415;-78
2022/12/24 10:44:18;;;;;;;4.57;0.93;;;1.40;99.90;;;;;;4977454;28;20046;-78
2022/12/24 10:46:46;;;;;;;5.60;0.93;;;1.30;99.90;;;;;;4977843;28;20054;-78
2022/12/24 10:49:19;;;;;;;3.40;0.80;;;1.20;99.90;;;;;;4986425;28;20426;-79
2022/12/24 10:51:54;;;;;;;1.58;0.90;;;1.20;99.90;;;;;;4987690;28;20050;-83
2022/12/24 10:54:24;;;;;;;3.88;0.90;;;1.10;99.90;;;;;;4990107;28;20069;-77
2022/12/24 10:56:57;;;;;;;4.85;1.10;;;1.00;99.90;;;;;;4988809;28;20038;-76
2022/12/24 10:59:28;;;;;;;2.45;0.75;;;1.00;99.90;;;;;;5004519;28;20046;-75
2022/12/24 11:01:57;;;;;;;4.78;1.13;;;1.10;99.90;;;;;;4961541;28;20050;-77
2022/12/24 11:04:31;;;;;;;3.97;0.75;;;1.10;99.90;;;;;;4987510;28;20446;-77
2022/12/24 11:07:02;;;;;;;3.95;1.08;;;1.10;99.90;;;;;;4990286;28;20100;-76
2022/12/24 11:09:32;;;;;;;3.15;0.85;;;1.10;99.90;;;;;;4977873;28;20386;-78
2022/12/24 11:12:03;;;;;;;6.03;1.35;;;1.00;99.90;;;;;;4972996;28;20517;-86
2022/12/24 11:14:36;;;;;;;6.50;1.58;;;1.00;99.90;;;;;;4975558;28;20129;-75
2022/12/24 11:17:05;;;;;;;3.50;1.00;;;1.10;99.90;;;;;;4991203;28;20062;-78
2022/12/24 11:19:38;;;;;;;2.92;0.73;;;1.00;99.90;;;;;;4974200;28;20061;-75
2022/12/24 11:22:17;;;;;;;3.20;0.80;;;1.00;99.90;;;;;;4976978;28;20062;-76
2022/12/24 11:25:01;;;;;;;5.18;0.70;;;1.10;99.90;;;;;;5000352;28;20061;-74
2022/12/24 11:27:40;;;;;;;2.20;0.60;;;1.00;99.90;;;;;;4980332;28;20450;-76
2022/12/24 11:30:34;;;;;;;3.88;0.88;;;1.00;99.90;;;;;;4978475;28;20431;-76
2022/12/24 11:33:22;;;;;;;3.20;0.60;;;1.00;99.90;;;;;;4988176;28;20050;-78
2022/12/24 11:35:56;;;;;;;5.15;1.92;;;1.00;99.90;;;;;;4986932;28;20065;-78
2022/12/24 11:38:28;;;;;;;6.32;1.00;;;1.00;99.90;;;;;;4986299;28;20065;-77
2022/12/24 11:41:04;;;;;;;5.90;1.02;;;1.00;99.90;;;;;;4969003;28;20443;-78
2022/12/24 11:44:02;;;;;;;5.47;1.20;;;1.10;99.90;;;;;;4982416;28;20065;-78
2022/12/24 11:46:38;;;;;;;3.95;1.25;;;1.10;99.90;;;;;;4983238;28;20050;-76
2022/12/24 11:49:17;;;;;;;11.50;1.85;;;1.10;99.90;;;;;;4985267;28;20046;-76
2022/12/24 11:52:20;;;;;;;4.20;0.77;;;1.00;99.90;;;;;;4986996;28;20054;-76
2022/12/24 11:55:12;;;;;;;3.55;1.23;;;0.90;99.90;;;;;;4986483;28;20533;-76
2022/12/24 11:57:53;;;;;;;4.13;1.10;;;0.90;99.90;;;;;;4989603;28;20458;-77
2022/12/24 12:00:22;;;;;;;5.82;1.55;;;0.90;99.90;;;;;;4986023;28;20078;-75
2022/12/24 12:02:56;;;;;;;4.35;1.27;;;0.90;99.90;;;;;;4999894;28;20045;-75
2022/12/24 12:05:32;;;;;;;1.92;1.20;;;0.90;99.90;;;;;;4979056;28;20042;-73
2022/12/24 12:08:08;;;;;;;;;;;0.90;99.90;;;;;;4974927;28;20047;-71
2022/12/24 12:10:41;;;;;;;7.78;0.95;;;1.00;99.90;;;;;;4982657;28;19926;-72
2022/12/24 12:13:15;;;;;;;2.33;0.73;;;0.90;99.90;;;;;;4985120;28;20570;-74
2022/12/24 12:15:49;;;;;;;5.65;1.20;;;0.90;99.90;;;;;;4985484;28;20145;-75
2022/12/24 12:18:27;;;;;;;5.80;1.33;;;1.00;99.90;;;;;;4986691;28;20050;-75
2022/12/24 12:21:01;;;;;;;2.22;0.90;;;1.00;99.90;;;;;;4967625;28;20423;-74
2022/12/24 12:23:35;;;;;;;5.70;0.80;;;1.00;99.90;;;;;;4983142;28;20645;-75
2022/12/24 12:26:13;;;;;;;4.18;0.70;;;1.10;99.90;;;;;;4984686;28;20050;-73
2022/12/24 12:28:46;;;;;;;0.77;0.57;;;1.00;99.90;;;;;;4982739;28;20054;-73
2022/12/24 12:31:22;;;;;;;3.42;0.57;;;1.00;99.90;;;;;;4982286;28;20529;-72
2022/12/24 12:33:56;;;;;;;3.90;1.23;;;1.00;99.90;;;;;;4969835;28;20038;-80
2022/12/24 12:36:33;;;;;;;6.75;1.52;;;1.00;99.90;;;;;;4983479;28;20145;-72
2022/12/24 12:39:04;;;;;;;3.20;0.95;;;1.00;99.90;;;;;;4972791;28;20061;-71
2022/12/24 12:41:50;;;;;;;3.08;1.05;;;1.00;99.90;;;;;;4982452;28;20054;-72
2022/12/24 12:44:46;;;;;;;2.15;0.85;;;1.00;99.90;;;;;;4967902;28;20518;-75
2022/12/24 12:47:55;;;;;;;4.13;0.68;;;1.00;99.90;;;;;;4977630;28;20530;-74
2022/12/24 12:50:31;;;;;;;2.42;0.60;;;1.00;99.90;;;;;;4982628;28;20050;-74
2022/12/24 12:53:30;;;;;;;4.72;0.73;;;1.00;99.90;;;;;;4986351;28;20054;-74
2022/12/24 12:56:10;;;;;;;2.28;0.45;;;0.90;99.90;;;;;;4985220;28;20054;-74
2022/12/24 12:58:43;;;;;;;2.97;0.80;;;0.90;99.90;;;;;;4988865;28;20050;-75
2022/12/24 13:01:20;;;;;;;3.65;0.52;;;0.80;99.90;;;;;;5002997;28;20095;-76
2022/12/24 13:04:27;;;;;;;3.05;0.70;;;0.90;99.90;;;;;;4996839;28;20049;-76
2022/12/24 13:07:41;;;;;;;1.52;0.57;;;0.90;99.90;;;;;;4986907;28;20055;-75
2022/12/24 13:10:37;;;;;;;3.08;0.68;;;0.90;99.90;;;;;;5004494;28;20069;-71
2022/12/24 13:13:36;;;;;;;1.70;0.80;;;0.90;99.90;;;;;;4993385;28;20116;-72
2022/12/24 13:16:47;;;;;;;11.80;1.55;;;0.90;99.90;;;;;;4984894;28;20058;-72
2022/12/24 13:19:30;;;;;;;10.18;1.48;;;0.90;99.90;;;;;;4958510;28;20061;-71
2022/12/24 13:21:58;;;;;;;5.20;1.67;;;0.90;99.90;;;;;;4968735;28;20054;-75
2022/12/24 13:24:27;;;;;;;7.32;1.67;;;0.80;99.90;;;;;;4988006;28;20042;-77
2022/12/24 13:27:05;;;;;;;4.15;1.30;;;0.80;99.90;;;;;;4988862;28;20499;-75
2022/12/24 13:29:46;;;;;;;5.95;1.40;;;0.90;99.90;;;;;;4994725;28;20046;-75